Aniwa, Wisconsin
Current Conditions -  °F | °C
As of 8:35 AM on Tuesday 21 Oct 2014 (Local Time) from KAIG Reporting Station
Overcast Overcast  
Wind Chill: -1°   Ceiling: 1300
Heat Index:   Visibility: 10mi
Dew Point:   Wind: 14mph
Humidity: 85%   Direction: 40°NE
Pressure: 30.21"   Gusts: NA
Location:  45.01°N, 89.21°W
Report Text: KAIG 211335Z AUTO 04012KT 10SM OVC013 03/01 A3021 RMK AO2 T00340011
Loading
Personal Weather Stations






























Interactive Weather Map
Tropical Storm Tracking
New forecast layout! Learn more

10-Day Weather Forecast

Advertisements
Track Severe Weather on mobile